createdAt,value
2018-05-21T00:03:59.814Z,19.40
2018-05-21T00:09:02.292Z,19.20
2018-05-21T00:14:04.767Z,19.10
2018-05-21T00:19:08.013Z,19.30
2018-05-21T00:24:10.497Z,19.20
2018-05-21T00:29:12.980Z,19.30
2018-05-21T00:34:15.472Z,18.90
2018-05-21T00:39:17.951Z,19.20
2018-05-21T00:44:20.441Z,18.90
2018-05-21T00:49:23.692Z,19.10
2018-05-21T00:54:26.180Z,18.70
2018-05-21T00:59:28.672Z,18.80
2018-05-21T01:04:31.157Z,18.60
2018-05-21T01:09:34.425Z,18.90
2018-05-21T01:14:36.911Z,18.80
2018-05-21T01:19:39.396Z,18.50
2018-05-21T01:24:41.887Z,18.60
2018-05-21T01:29:44.386Z,18.70
2018-05-21T01:34:46.868Z,18.70
2018-05-21T01:39:49.357Z,18.70
2018-05-21T01:44:51.848Z,18.70
2018-05-21T01:49:54.337Z,18.60
2018-05-21T01:54:56.828Z,18.50
2018-05-21T01:59:59.316Z,18.50
2018-05-21T02:05:01.806Z,18.40
2018-05-21T02:10:04.300Z,18.40
2018-05-21T02:15:06.796Z,18.20
2018-05-21T02:20:09.350Z,18.30
2018-05-21T02:25:11.776Z,18.20
2018-05-21T02:30:14.268Z,18.10
2018-05-21T02:35:16.756Z,18.40
2018-05-21T02:40:19.254Z,18.10
2018-05-21T02:45:21.749Z,18.20
2018-05-21T02:50:24.235Z,17.90
2018-05-21T02:55:26.727Z,18.20
2018-05-21T03:00:29.208Z,18.00
2018-05-21T03:05:32.456Z,18.00
2018-05-21T03:10:34.951Z,18.00
2018-05-21T03:15:37.427Z,18.00
2018-05-21T03:20:39.916Z,18.00
2018-05-21T03:25:43.587Z,17.90
2018-05-21T03:30:46.075Z,17.80
2018-05-21T03:35:48.551Z,18.00
2018-05-21T03:40:51.045Z,17.60
2018-05-21T03:45:53.523Z,17.80
2018-05-21T03:50:56.015Z,17.60
2018-05-21T03:55:58.504Z,17.90
2018-05-21T04:01:12.816Z,17.80
2018-05-21T04:06:15.307Z,17.80
2018-05-21T04:11:17.787Z,17.50
2018-05-21T04:16:20.276Z,17.40
2018-05-21T04:21:22.770Z,17.50
2018-05-21T04:26:25.240Z,17.50
2018-05-21T04:31:27.723Z,17.50
2018-05-21T04:41:39.160Z,17.60
2018-05-21T04:46:41.648Z,17.70
2018-05-21T04:51:44.146Z,17.70
2018-05-21T04:56:46.616Z,17.90
2018-05-21T05:01:49.097Z,17.50
2018-05-21T05:06:52.337Z,17.80
2018-05-21T05:11:54.811Z,17.90
2018-05-21T05:16:57.295Z,17.50
2018-05-21T05:22:00.557Z,17.60
2018-05-21T05:27:03.040Z,17.60
2018-05-21T05:32:05.529Z,17.50
2018-05-21T05:37:08.003Z,18.00
2018-05-21T05:42:10.530Z,17.70
2018-05-21T05:47:13.805Z,17.80
2018-05-21T05:52:16.292Z,17.70
2018-05-21T05:57:18.781Z,18.20
2018-05-21T06:02:21.276Z,17.90
2018-05-21T06:07:23.760Z,17.90
2018-05-21T06:12:27.022Z,18.10
2018-05-21T06:17:29.504Z,18.10
2018-05-21T06:22:31.984Z,18.20
2018-05-21T06:27:34.465Z,18.60
2018-05-21T06:32:36.948Z,18.30
2018-05-21T06:37:40.200Z,18.50
2018-05-21T06:42:42.688Z,18.50
2018-05-21T06:47:45.195Z,18.50
2018-05-21T06:52:47.663Z,18.60
2018-05-21T06:57:50.152Z,18.90
2018-05-21T07:02:52.636Z,18.60
2018-05-21T07:07:55.948Z,18.60
2018-05-21T07:12:58.363Z,18.80
2018-05-21T07:18:00.848Z,18.90
2018-05-21T07:23:03.320Z,18.90
2018-05-21T07:28:06.572Z,18.80
2018-05-21T07:33:09.068Z,19.40
2018-05-21T07:38:11.720Z,19.10
2018-05-21T07:43:14.972Z,19.20
2018-05-21T07:48:17.455Z,19.00
2018-05-21T07:53:19.936Z,19.30
2018-05-21T07:58:22.458Z,19.60
2018-05-21T08:03:24.915Z,19.40
2018-05-21T08:08:28.173Z,19.40
2018-05-21T08:13:30.656Z,19.40
2018-05-21T08:18:33.907Z,19.90
2018-05-21T08:23:36.392Z,19.90
2018-05-21T08:28:38.876Z,19.60
2018-05-21T08:33:41.348Z,19.60
2018-05-21T08:38:43.843Z,19.90
2018-05-21T08:43:46.311Z,20.10
2018-05-21T08:48:48.852Z,20.30
2018-05-21T08:53:52.044Z,20.20
2018-05-21T08:58:54.516Z,20.20
2018-05-21T09:03:56.987Z,20.40
2018-05-21T09:09:00.243Z,20.40
2018-05-21T09:14:02.724Z,20.30
2018-05-21T09:19:05.215Z,20.50
2018-05-21T09:24:07.704Z,20.50
2018-05-21T09:29:10.183Z,20.60
2018-05-21T09:34:12.675Z,20.40
2018-05-21T09:39:15.163Z,20.60
2018-05-21T09:44:17.656Z,20.70
2018-05-21T09:49:20.916Z,20.90
2018-05-21T09:54:23.395Z,20.90
2018-05-21T09:59:25.884Z,21.00
2018-05-21T10:04:28.361Z,21.30
2018-05-21T10:09:30.840Z,21.00
2018-05-21T10:14:34.093Z,21.20
2018-05-21T10:19:36.576Z,21.00
2018-05-21T10:24:39.108Z,21.20
2018-05-21T10:29:41.601Z,21.10
2018-05-21T10:34:44.071Z,21.40
2018-05-21T10:39:46.568Z,21.30
2018-05-21T10:44:49.060Z,21.60
2018-05-21T10:49:51.544Z,21.60
2018-05-21T10:54:54.804Z,21.90
2018-05-21T10:59:58.083Z,22.00
2018-05-21T11:05:00.572Z,21.80
2018-05-21T11:10:03.063Z,21.90
2018-05-21T11:15:05.552Z,22.10
2018-05-21T11:20:08.049Z,22.20
2018-05-21T11:25:10.524Z,22.10
2018-05-21T11:30:13.016Z,22.10
2018-05-21T11:35:15.492Z,22.30
2018-05-21T11:40:17.975Z,22.40
2018-05-21T11:45:21.235Z,22.50
2018-05-21T11:50:23.771Z,22.50
2018-05-21T11:55:26.184Z,22.40
2018-05-21T12:00:28.681Z,22.40
2018-05-21T12:05:31.166Z,22.60
2018-05-21T12:10:33.639Z,22.50
2018-05-21T12:15:36.899Z,22.80
2018-05-21T12:20:39.387Z,22.70
2018-05-21T12:25:41.921Z,22.70
2018-05-21T12:30:44.409Z,22.80
2018-05-21T12:35:46.876Z,22.80
2018-05-21T12:40:49.363Z,23.00
2018-05-21T12:45:51.860Z,23.00
2018-05-21T12:50:54.344Z,23.20
2018-05-21T12:55:56.833Z,23.20
2018-05-21T13:00:59.322Z,23.10
2018-05-21T13:06:01.816Z,23.10
2018-05-21T13:11:04.299Z,23.10
2018-05-21T13:16:06.787Z,23.20
2018-05-21T13:21:09.271Z,23.20
2018-05-21T13:26:11.759Z,23.20
2018-05-21T13:31:14.231Z,23.20
2018-05-21T13:36:17.480Z,23.30
2018-05-21T13:41:19.955Z,23.30
2018-05-21T13:46:22.431Z,23.30
2018-05-21T13:51:25.687Z,23.40
2018-05-21T13:56:28.176Z,23.40
2018-05-21T14:01:30.652Z,23.50
2018-05-21T14:06:33.140Z,23.50
2018-05-21T14:11:35.632Z,23.50
2018-05-21T14:16:38.115Z,23.50
2018-05-21T14:21:40.626Z,23.40
2018-05-21T14:26:43.860Z,23.60
2018-05-21T14:31:46.352Z,23.60
2018-05-21T14:36:48.839Z,23.60
2018-05-21T14:41:51.331Z,23.60
2018-05-21T14:46:53.828Z,23.70
2018-05-21T14:51:56.313Z,23.60
2018-05-21T14:56:58.800Z,23.60
2018-05-21T15:02:01.314Z,23.60
2018-05-21T15:07:03.784Z,23.70
2018-05-21T15:12:06.256Z,23.70
2018-05-21T15:17:08.748Z,23.70
2018-05-21T15:22:11.318Z,23.80
2018-05-21T15:27:14.480Z,23.80
2018-05-21T15:32:16.968Z,23.70
2018-05-21T15:37:19.462Z,23.80
2018-05-21T15:42:21.952Z,23.80
2018-05-21T15:47:24.440Z,23.80
2018-05-21T15:52:26.932Z,23.90
2018-05-21T15:57:29.426Z,23.80
2018-05-21T16:02:31.909Z,23.90
2018-05-21T16:07:34.390Z,23.90
2018-05-21T16:12:37.655Z,23.90
2018-05-21T16:17:40.140Z,23.90
2018-05-21T16:22:42.652Z,23.90
2018-05-21T16:27:45.135Z,24.00
2018-05-21T16:32:47.620Z,24.00
2018-05-21T16:37:50.112Z,24.00
2018-05-21T16:42:52.624Z,24.00
2018-05-21T16:47:55.185Z,24.00
2018-05-21T16:52:57.572Z,24.00
2018-05-21T16:58:00.072Z,24.00
2018-05-21T17:03:02.567Z,24.00
2018-05-21T17:08:05.048Z,24.00
2018-05-21T17:13:07.540Z,24.00
2018-05-21T17:18:10.789Z,24.10
2018-05-21T17:23:13.264Z,24.10
2018-05-21T17:28:15.744Z,24.10
2018-05-21T17:33:18.244Z,24.10
2018-05-21T17:38:20.736Z,24.10
2018-05-21T17:43:23.219Z,24.10
2018-05-21T17:48:25.712Z,24.10
2018-05-21T17:53:28.959Z,24.10
2018-05-21T17:58:31.458Z,24.10
2018-05-21T18:03:34.019Z,24.10
2018-05-21T18:08:36.432Z,24.10
2018-05-21T18:13:38.921Z,24.10
2018-05-21T18:18:41.454Z,24.10
2018-05-21T18:23:43.886Z,24.00
2018-05-21T18:28:46.376Z,24.00
2018-05-21T18:33:49.705Z,24.00
2018-05-21T18:38:52.199Z,23.90
2018-05-21T18:43:54.675Z,23.90
2018-05-21T18:48:57.153Z,23.90
2018-05-21T18:54:00.464Z,23.80
2018-05-21T18:59:02.896Z,23.70
2018-05-21T19:04:05.389Z,23.80
2018-05-21T19:09:07.867Z,23.70
2018-05-21T19:14:10.369Z,23.70
2018-05-21T19:19:12.856Z,23.60
2018-05-21T19:24:15.336Z,23.60
2018-05-21T19:29:17.827Z,23.50
2018-05-21T19:34:20.312Z,23.50
2018-05-21T19:39:23.572Z,23.30
2018-05-21T19:44:26.060Z,23.30
2018-05-21T19:49:28.543Z,23.30
2018-05-21T19:54:31.033Z,23.20
2018-05-21T19:59:33.523Z,23.20
2018-05-21T20:04:36.001Z,23.10
2018-05-21T20:09:38.473Z,23.00
2018-05-21T20:14:41.729Z,22.90
2018-05-21T20:19:44.207Z,22.90
2018-05-21T20:24:46.703Z,22.80
2018-05-21T20:29:49.187Z,22.80
2018-05-21T20:34:51.667Z,22.70
2018-05-21T20:39:54.146Z,22.70
2018-05-21T20:44:57.387Z,22.50
2018-05-21T20:49:59.868Z,22.50
2018-05-21T20:55:02.348Z,22.20
2018-05-21T21:00:05.591Z,22.30
2018-05-21T21:05:08.084Z,21.90
2018-05-21T21:10:10.572Z,21.90
2018-05-21T21:15:13.053Z,22.20
2018-05-21T21:20:15.536Z,22.20
2018-05-21T21:25:18.033Z,21.90
2018-05-21T21:30:20.519Z,22.10
2018-05-21T21:35:23.017Z,22.00
2018-05-21T21:40:25.491Z,22.00
2018-05-21T21:45:28.780Z,22.00
2018-05-21T21:50:31.232Z,21.90
2018-05-21T21:55:33.724Z,21.90
2018-05-21T22:00:36.218Z,21.70
2018-05-21T22:05:38.711Z,21.80
2018-05-21T22:10:41.192Z,21.80
2018-05-21T22:15:43.668Z,21.70
2018-05-21T22:20:46.159Z,21.70
2018-05-21T22:25:48.841Z,21.70
2018-05-21T22:30:51.323Z,21.70
2018-05-21T22:35:53.820Z,21.70
2018-05-21T22:40:57.067Z,21.60
2018-05-21T22:45:59.560Z,21.50
2018-05-21T22:51:02.040Z,21.40
2018-05-21T22:56:04.520Z,21.40
2018-05-21T23:01:07.766Z,21.60
2018-05-21T23:06:10.256Z,21.60
2018-05-21T23:11:12.736Z,21.30
2018-05-21T23:16:15.305Z,21.40
2018-05-21T23:21:17.711Z,21.30
2018-05-21T23:26:20.965Z,21.20
2018-05-21T23:31:23.448Z,21.00
2018-05-21T23:36:25.924Z,21.40
2018-05-21T23:41:28.412Z,21.20
2018-05-21T23:46:30.900Z,21.00
2018-05-21T23:51:33.389Z,21.00
2018-05-21T23:56:35.883Z,20.80
